Terminal Aerodrome Forecast
Issued by NWS

Home | Current Version | Previous Version | Text Only | Print | Product List | Glossary On
Versions: 1 2 3 4 5 6 7 8 9 10 11 12 13 14 15
662
FTUS46 KMTR 240524
TAFSJC
TAF
KSJC 240524Z 2406/2506 VRB04KT P6SM FEW020 SCT100
     FM240700 18005KT P6SM FEW020 BKN070
     FM241000 13010KT P6SM VCSH FEW020 OVC050
     FM241300 15015G23KT P6SM -SHRA FEW020 OVC030
     FM241900 15018G25KT P6SM -RA FEW020 OVC030
      TEMPO 2419/2423 4SM RA
     FM250000 14012KT P6SM -SHRA SCT030 SCT050
     FM250400 24006KT P6SM VCSH SCT030=

USA.gov is the U.S. government's official web portal to all federal, state and local government web resources and services.